Time;durP1;ratioP1;P1;durP2;ratioP2;P2;SDS_P1;SDS_P2;PMS_P1;PMS_P2;Temp;Humidity;BMP_temperature;BMP_pressure;BME280_temperature;BME280_humidity;BME280_pressure;Samples;Min_cycle;Max_cycle;Signal;HPM_P1;HPM_P2
2021/06/10 00:01:27;;;;;;;6.03;5.50;;;;;;;16.96;82.40;99737.09;2018756;77;21409;-75
2021/06/10 00:04:31;;;;;;;7.07;5.31;;;;;;;16.89;82.64;99739.03;2017385;80;20228;-75
2021/06/10 00:07:34;;;;;;;5.65;5.25;;;;;;;16.87;82.68;99743.41;2017279;80;20167;-75
2021/06/10 00:10:40;;;;;;;6.15;5.65;;;;;;;16.82;82.66;99742.66;2017393;80;20389;-75
2021/06/10 00:13:42;;;;;;;5.45;4.79;;;;;;;16.76;82.87;99738.44;2017050;80;20219;-75
2021/06/10 00:16:45;;;;;;;5.76;5.35;;;;;;;16.69;83.09;99742.09;2016114;78;20184;-75
2021/06/10 00:19:47;;;;;;;5.46;5.14;;;;;;;16.60;83.21;99743.16;2017330;80;20708;-77
2021/06/10 00:22:51;;;;;;;5.74;5.24;;;;;;;16.54;83.67;99750.31;2017861;80;20205;-77
2021/06/10 00:25:54;;;;;;;6.50;5.05;;;;;;;16.49;83.83;99750.38;2017181;80;20179;-77
2021/06/10 00:28:57;;;;;;;6.80;6.01;;;;;;;16.48;84.06;99755.66;2018342;80;20179;-77
2021/06/10 00:31:59;;;;;;;6.22;5.60;;;;;;;16.47;84.09;99753.94;2020359;77;20913;-77
2021/06/10 00:35:03;;;;;;;7.04;6.43;;;;;;;16.43;84.06;99752.28;2023271;80;20198;-77
2021/06/10 00:38:06;;;;;;;6.55;5.95;;;;;;;16.37;84.08;99749.81;2023194;80;20875;-76
2021/06/10 00:41:09;;;;;;;6.69;6.11;;;;;;;16.33;84.09;99746.38;2022609;80;20187;-76
2021/06/10 00:44:11;;;;;;;6.79;6.29;;;;;;;16.27;84.06;99743.91;2022921;80;20212;-76
2021/06/10 00:47:14;;;;;;;6.84;6.24;;;;;;;16.22;84.23;99738.78;2018502;78;22244;-76
2021/06/10 00:50:20;;;;;;;6.61;6.09;;;;;;;16.14;84.36;99732.81;2016696;80;20179;-76
2021/06/10 00:53:25;;;;;;;7.18;6.36;;;;;;;16.10;84.64;99739.03;2017438;80;20338;-75
2021/06/10 00:56:28;;;;;;;8.15;6.75;;;;;;;16.10;84.75;99740.78;2016366;80;20257;-75
2021/06/10 00:59:31;;;;;;;8.11;7.01;;;;;;;16.04;84.80;99741.78;2017291;80;20189;-75
2021/06/10 01:02:34;;;;;;;9.48;7.79;;;;;;;15.99;84.92;99748.88;2021808;80;21510;-76
2021/06/10 01:05:38;;;;;;;8.11;7.41;;;;;;;15.96;85.19;99747.16;2022920;80;20214;-75
2021/06/10 01:08:47;;;;;;;8.61;7.53;;;;;;;15.94;85.36;99741.09;2023336;80;20183;-76
2021/06/10 01:12:12;;;;;;;9.68;7.85;;;;;;;15.88;85.22;99754.34;2022667;80;20179;-75
2021/06/10 01:15:15;;;;;;;8.89;8.09;;;;;;;15.86;85.40;99756.13;2022576;80;20659;-75
2021/06/10 01:18:18;;;;;;;9.10;8.00;;;;;;;15.85;85.58;99750.91;2018380;78;23593;-76
2021/06/10 01:21:23;;;;;;;8.31;7.29;;;;;;;15.81;85.66;99754.50;2017539;80;20536;-76
2021/06/10 01:24:43;;;;;;;9.19;8.39;;;;;;;15.76;85.55;99765.03;2018196;80;20600;-76
2021/06/10 01:27:50;;;;;;;8.41;7.64;;;;;;;15.72;86.00;99755.53;2018035;80;20175;-75
2021/06/10 01:30:57;;;;;;;9.70;8.84;;;;;;;15.71;86.04;99756.41;2018754;77;20264;-75
2021/06/10 01:34:05;;;;;;;9.52;8.50;;;;;;;15.62;86.06;99754.00;2022720;80;20950;-76
2021/06/10 01:37:08;;;;;;;9.54;8.43;;;;;;;15.60;86.08;99764.47;2022951;80;20183;-76
2021/06/10 01:40:13;;;;;;;9.49;8.57;;;;;;;15.58;86.18;99754.88;2023088;80;20776;-76
2021/06/10 01:43:17;;;;;;;9.61;8.52;;;;;;;15.53;86.30;99757.59;2022879;80;20172;-76
2021/06/10 01:46:24;;;;;;;10.70;9.38;;;;;;;15.52;86.42;99757.63;2020362;80;24210;-75
2021/06/10 01:49:28;;;;;;;12.09;9.19;;;;;;;15.49;86.32;99753.31;2018715;80;20172;-75
2021/06/10 01:52:31;;;;;;;10.00;9.04;;;;;;;15.47;86.25;99752.50;2017679;80;20195;-75
2021/06/10 01:55:36;;;;;;;11.06;9.13;;;;;;;15.45;86.49;99749.03;2018042;80;20184;-75
2021/06/10 01:58:42;;;;;;;10.21;8.98;;;;;;;15.43;87.33;99745.56;2017141;80;20180;-76
2021/06/10 02:01:46;;;;;;;9.02;8.32;;;;;;;15.47;87.35;99749.00;2019979;77;22511;-75
2021/06/10 02:04:50;;;;;;;9.19;8.35;;;;;;;15.42;87.03;99742.09;2024261;80;20205;-75
2021/06/10 02:07:52;;;;;;;9.85;9.02;;;;;;;15.35;86.88;99739.63;2024059;80;20257;-75
2021/06/10 02:10:57;;;;;;;10.45;9.25;;;;;;;15.32;86.93;99745.78;2024020;80;20289;-76
2021/06/10 02:14:00;;;;;;;10.40;9.35;;;;;;;15.28;86.86;99749.34;2024430;80;20191;-75
2021/06/10 02:17:04;;;;;;;9.64;8.93;;;;;;;15.25;86.79;99746.75;2023215;77;20212;-77
2021/06/10 02:20:08;;;;;;;10.34;9.44;;;;;;;15.19;86.78;99746.88;2024466;80;20627;-78
2021/06/10 02:23:11;;;;;;;10.38;9.48;;;;;;;15.15;86.81;99746.97;2024192;80;20570;-77
2021/06/10 02:26:15;;;;;;;10.38;9.38;;;;;;;15.11;86.99;99747.03;2024257;80;20229;-78
2021/06/10 02:29:17;;;;;;;10.65;9.63;;;;;;;15.06;86.88;99750.56;2024350;80;20226;-78
2021/06/10 02:32:20;;;;;;;10.75;9.75;;;;;;;15.03;86.83;99745.41;2018890;77;21928;-78
2021/06/10 02:35:23;;;;;;;12.09;10.96;;;;;;;14.99;86.97;99743.75;2019807;80;20201;-77
2021/06/10 02:38:29;;;;;;;11.24;10.32;;;;;;;14.93;86.99;99739.47;2018722;80;20213;-78
2021/06/10 02:41:37;;;;;;;11.69;10.39;;;;;;;14.88;87.10;99746.50;2019256;80;20204;-77
2021/06/10 02:44:42;;;;;;;11.44;10.35;;;;;;;14.86;87.12;99743.06;2019092;80;20786;-77
2021/06/10 02:47:46;;;;;;;11.27;10.26;;;;;;;14.84;87.14;99737.00;2022411;77;22386;-77
2021/06/10 02:50:51;;;;;;;10.85;9.75;;;;;;;14.81;87.21;99734.44;2024321;80;20180;-77
2021/06/10 02:53:54;;;;;;;11.09;9.84;;;;;;;14.81;87.38;99737.06;2024122;80;20171;-76
2021/06/10 02:56:58;;;;;;;10.01;9.06;;;;;;;14.78;87.46;99740.59;2024096;80;20191;-75
2021/06/10 03:00:04;;;;;;;10.56;9.52;;;;;;;14.75;87.63;99745.88;2023696;80;20183;-76
2021/06/10 03:03:11;;;;;;;10.44;9.34;;;;;;;14.73;87.55;99734.56;2017870;80;27731;-75
2021/06/10 03:06:15;;;;;;;11.36;10.14;;;;;;;14.71;87.80;99738.94;2017723;80;21177;-76
2021/06/10 03:09:19;;;;;;;12.59;10.81;;;;;;;14.68;87.65;99745.97;2017554;80;20783;-76
2021/06/10 03:12:22;;;;;;;11.52;10.39;;;;;;;14.64;87.57;99746.91;2017513;80;20199;-76
2021/06/10 03:15:27;;;;;;;11.79;10.79;;;;;;;14.59;87.51;99744.38;2017301;77;21470;-76
2021/06/10 03:18:31;;;;;;;13.39;11.51;;;;;;;14.52;87.64;99745.34;2022468;80;20190;-76
2021/06/10 03:21:35;;;;;;;12.23;10.46;;;;;;;14.50;87.89;99744.50;2022595;80;20207;-76
2021/06/10 03:24:38;;;;;;;11.40;10.26;;;;;;;14.48;87.84;99739.28;2022290;80;20186;-76
2021/06/10 03:27:41;;;;;;;12.44;11.29;;;;;;;14.45;87.76;99738.47;2021769;80;20199;-76
2021/06/10 03:30:44;;;;;;;13.88;11.57;;;;;;;14.41;87.71;99742.88;2020128;77;25054;-76
2021/06/10 03:33:49;;;;;;;13.98;12.39;;;;;;;14.40;87.79;99740.28;2017576;80;20630;-76
2021/06/10 03:36:52;;;;;;;12.49;11.43;;;;;;;14.38;87.81;99740.28;2016646;80;20223;-76
2021/06/10 03:39:56;;;;;;;13.49;11.49;;;;;;;14.39;87.78;99746.38;2018215;80;20244;-76
2021/06/10 03:42:59;;;;;;;13.90;12.15;;;;;;;14.38;87.62;99748.13;2017456;80;20199;-76
2021/06/10 03:46:07;;;;;;;12.75;11.66;;;;;;;14.26;87.41;99743.06;2018432;77;24794;-76
2021/06/10 03:49:11;;;;;;;14.30;12.84;;;;;;;14.27;87.93;99743.94;2022292;80;20530;-76
2021/06/10 03:52:14;;;;;;;12.70;11.48;;;;;;;14.28;88.25;99736.06;2022202;80;20183;-76
2021/06/10 03:55:16;;;;;;;12.38;11.20;;;;;;;14.31;88.47;99738.63;2022497;80;20259;-77
2021/06/10 03:58:21;;;;;;;11.98;10.77;;;;;;;14.31;88.54;99738.63;2023028;80;20159;-75
2021/06/10 04:01:24;;;;;;;12.11;11.01;;;;;;;14.33;88.51;99739.47;2019151;78;22961;-76
2021/06/10 04:04:28;;;;;;;10.76;9.69;;;;;;;14.34;88.71;99737.72;2016688;80;20193;-76
2021/06/10 04:07:31;;;;;;;11.89;10.63;;;;;;;14.33;89.03;99742.09;2016598;80;20231;-76
2021/06/10 04:10:33;;;;;;;12.38;11.23;;;;;;;14.38;88.99;99740.28;2017046;80;20241;-76
2021/06/10 04:13:36;;;;;;;14.81;10.66;;;;;;;14.42;89.07;99743.72;2017523;80;20203;-76
2021/06/10 04:16:39;;;;;;;12.39;11.18;;;;;;;14.44;89.07;99737.63;2019810;77;20186;-76
2021/06/10 04:19:41;;;;;;;12.56;11.27;;;;;;;14.49;89.06;99741.03;2023133;80;20191;-76
2021/06/10 04:22:44;;;;;;;11.71;10.59;;;;;;;14.52;89.06;99735.75;2022354;80;20179;-76
2021/06/10 04:25:47;;;;;;;10.40;9.09;;;;;;;14.57;89.13;99735.69;2022204;80;20195;-77
2021/06/10 04:28:49;;;;;;;9.60;8.86;;;;;;;14.64;88.76;99736.47;2022944;80;20163;-77
2021/06/10 04:31:52;;;;;;;9.36;8.66;;;;;;;14.72;88.58;99747.63;2018623;77;21569;-77
2021/06/10 04:34:55;;;;;;;9.44;8.64;;;;;;;14.81;88.28;99740.53;2018229;80;20192;-77
2021/06/10 04:37:58;;;;;;;10.70;9.64;;;;;;;14.91;87.78;99740.41;2017259;80;20189;-77
2021/06/10 04:41:00;;;;;;;11.77;9.50;;;;;;;14.97;87.41;99738.53;2018215;80;20176;-76
2021/06/10 04:44:04;;;;;;;10.73;9.80;;;;;;;15.01;87.22;99744.56;2017821;80;20649;-77
2021/06/10 04:47:08;;;;;;;11.00;9.86;;;;;;;15.09;87.15;99750.56;2019716;77;23266;-76
2021/06/10 04:50:13;;;;;;;10.04;9.09;;;;;;;15.18;87.16;99744.28;2022534;80;20908;-77
2021/06/10 04:53:16;;;;;;;9.04;7.86;;;;;;;15.27;87.01;99745.00;2023357;80;20488;-77
2021/06/10 04:56:20;;;;;;;9.64;8.75;;;;;;;15.41;86.84;99747.34;2022564;80;20194;-77
2021/06/10 04:59:23;;;;;;;9.02;7.94;;;;;;;15.56;86.53;99754.91;2023105;80;20210;-77
2021/06/10 05:02:25;;;;;;;9.15;8.24;;;;;;;15.71;86.20;99752.03;2017393;78;22605;-77
2021/06/10 05:05:28;;;;;;;9.36;8.51;;;;;;;15.93;85.58;99751.59;2016849;80;20180;-76
2021/06/10 05:08:32;;;;;;;8.06;7.34;;;;;;;16.14;85.07;99750.28;2017010;80;20302;-76
2021/06/10 05:11:35;;;;;;;8.55;7.64;;;;;;;16.40;83.75;99749.75;2017198;80;20199;-76
2021/06/10 05:14:38;;;;;;;8.05;6.66;;;;;;;16.71;82.43;99747.31;2016594;80;20553;-76
2021/06/10 05:17:40;;;;;;;7.55;6.91;;;;;;;16.99;81.22;99748.38;2021145;80;20580;-76
2021/06/10 05:20:44;;;;;;;7.79;7.11;;;;;;;17.21;80.18;99753.94;2021806;80;20206;-76
2021/06/10 05:23:47;;;;;;;8.29;7.36;;;;;;;17.38;79.34;99745.63;2123404;69;20260;-75
2021/06/10 05:26:50;;;;;;;9.27;7.59;;;;;;;17.59;78.63;99746.81;2022539;80;20580;-75
2021/06/10 05:29:52;;;;;;;9.26;6.71;;;;;;;17.85;77.84;99741.75;2022002;80;20171;-75
2021/06/10 05:32:56;;;;;;;8.48;7.64;;;;;;;18.18;76.56;99739.03;2020764;77;21122;-75
2021/06/10 05:35:59;;;;;;;8.49;7.69;;;;;;;18.49;75.51;99746.84;2018908;80;20231;-75
2021/06/10 05:39:04;;;;;;;9.15;8.10;;;;;;;18.80;74.68;99750.25;2021601;80;20268;-76
2021/06/10 05:42:07;;;;;;;9.23;7.85;;;;;;;19.06;73.22;99754.69;2020782;80;20179;-75
2021/06/10 05:45:10;;;;;;;9.11;7.90;;;;;;;19.22;72.30;99755.03;2019906;80;20627;-76
2021/06/10 05:48:13;;;;;;;10.01;8.71;;;;;;;19.44;71.38;99756.03;2021326;77;21197;-75
2021/06/10 05:51:16;;;;;;;10.85;7.97;;;;;;;19.61;70.76;99755.47;2021364;80;20289;-75
2021/06/10 05:54:18;;;;;;;9.06;8.19;;;;;;;19.94;70.28;99749.91;2021713;80;20616;-72
2021/06/10 05:57:21;;;;;;;8.73;7.90;;;;;;;20.22;69.34;99746.16;2021876;80;20195;-72
2021/06/10 06:00:24;;;;;;;9.04;8.14;;;;;;;20.49;68.43;99754.81;2020156;78;23372;-73
2021/06/10 06:03:30;;;;;;;8.41;7.47;;;;;;;20.81;67.60;99747.38;2016701;80;20213;-72
2021/06/10 06:06:32;;;;;;;12.49;8.13;;;;;;;21.08;66.23;99755.97;2018355;80;20205;-72
2021/06/10 06:09:36;;;;;;;9.93;7.59;;;;;;;21.36;65.37;99768.88;2021241;80;20253;-75
2021/06/10 06:12:40;;;;;;;8.71;7.86;;;;;;;21.64;64.61;99765.94;2017605;80;20184;-75
2021/06/10 06:15:43;;;;;;;9.38;8.16;;;;;;;21.95;63.95;99771.59;2018766;77;20190;-74
2021/06/10 06:18:49;;;;;;;8.81;8.01;;;;;;;22.22;63.43;99772.13;2021765;80;20175;-75
2021/06/10 06:21:52;;;;;;;11.27;8.68;;;;;;;22.39;62.96;99775.78;2021118;80;20204;-74
2021/06/10 06:24:54;;;;;;;9.88;8.98;;;;;;;22.70;61.83;99776.06;2023194;80;20175;-73
2021/06/10 06:27:57;;;;;;;10.52;8.76;;;;;;;22.97;60.83;99775.69;2023254;80;20197;-78
2021/06/10 06:31:00;;;;;;;13.11;9.14;;;;;;;23.20;60.21;99780.72;2020089;77;21019;-75
2021/06/10 06:34:02;;;;;;;11.98;8.26;;;;;;;23.24;59.56;99781.41;2017831;80;21021;-75
2021/06/10 06:37:05;;;;;;;9.71;8.27;;;;;;;23.35;59.18;99781.75;2017154;80;20192;-75
2021/06/10 06:40:09;;;;;;;13.57;9.07;;;;;;;23.41;58.89;99781.44;2017254;80;20217;-74
2021/06/10 06:43:13;;;;;;;10.38;9.04;;;;;;;23.57;57.91;99782.41;2017766;80;20216;-73
2021/06/10 06:46:16;;;;;;;12.00;9.76;;;;;;;23.64;56.67;99783.78;2017586;77;27578;-75
2021/06/10 06:49:19;;;;;;;14.07;9.50;;;;;;;23.71;55.79;99779.03;2022292;80;20924;-74
2021/06/10 06:52:21;;;;;;;10.76;9.06;;;;;;;23.89;55.90;99780.72;2023113;80;20695;-74
2021/06/10 06:55:24;;;;;;;14.79;9.32;;;;;;;24.13;56.34;99790.97;2023201;80;20209;-72
2021/06/10 06:58:27;;;;;;;10.98;9.91;;;;;;;24.37;55.09;99787.00;2023024;80;20196;-73
2021/06/10 07:01:30;;;;;;;10.95;9.77;;;;;;;24.63;54.01;99785.56;2020324;78;20233;-74
2021/06/10 07:04:32;;;;;;;10.46;9.45;;;;;;;24.94;53.37;99790.84;2018739;80;20164;-71
2021/06/10 07:07:35;;;;;;;10.44;9.52;;;;;;;25.18;52.21;99785.13;2017353;80;20256;-71
2021/06/10 07:10:38;;;;;;;9.64;8.24;;;;;;;25.36;50.96;99778.72;2017797;80;20160;-73
2021/06/10 07:13:40;;;;;;;12.02;9.66;;;;;;;25.58;51.42;99784.47;2017168;80;20193;-73
2021/06/10 07:16:43;;;;;;;10.40;9.50;;;;;;;25.77;50.87;99788.72;2019100;80;22674;-74
2021/06/10 07:19:50;;;;;;;9.85;8.88;;;;;;;25.78;49.74;99785.97;2022764;80;20236;-73
2021/06/10 07:22:53;;;;;;;10.65;9.46;;;;;;;25.55;49.11;99781.13;2022676;80;20303;-74
2021/06/10 07:25:56;;;;;;;12.89;8.57;;;;;;;25.67;50.04;99783.03;2023310;80;20167;-72
2021/06/10 07:28:59;;;;;;;9.15;8.24;;;;;;;25.80;50.77;99786.72;2022833;80;20200;-72
2021/06/10 07:32:02;;;;;;;10.46;9.56;;;;;;;25.92;50.57;99792.25;2018953;77;41473;-72
2021/06/10 07:35:05;;;;;;;8.89;8.09;;;;;;;25.87;48.42;99796.06;2017747;80;20183;-72
2021/06/10 07:38:09;;;;;;;9.35;8.38;;;;;;;25.90;48.76;99795.00;2017773;80;20767;-72
2021/06/10 07:41:12;;;;;;;13.76;8.39;;;;;;;26.20;49.57;99801.09;2018171;80;20231;-71
2021/06/10 07:44:15;;;;;;;8.80;8.04;;;;;;;26.21;48.40;99796.63;2017516;80;20439;-71
2021/06/10 07:47:17;;;;;;;10.27;9.27;;;;;;;26.20;49.19;99798.41;2020332;77;22928;-73
2021/06/10 07:50:23;;;;;;;10.52;9.50;;;;;;;26.27;47.74;99792.72;2022303;80;21088;-73
2021/06/10 07:53:26;;;;;;;10.30;9.40;;;;;;;26.25;47.39;99798.16;2022961;80;20175;-70
2021/06/10 07:56:29;;;;;;;12.40;8.36;;;;;;;26.11;47.81;99798.16;2023340;80;20733;-71
2021/06/10 07:59:33;;;;;;;11.14;9.11;;;;;;;26.32;49.13;99795.94;2022956;80;20952;-73
2021/06/10 08:02:35;;;;;;;14.10;8.30;;;;;;;26.43;47.98;99797.03;2017344;77;20176;-70
2021/06/10 08:05:38;;;;;;;9.64;8.73;;;;;;;26.59;48.14;99791.59;2017546;80;20658;-73
2021/06/10 08:08:41;;;;;;;10.00;8.50;;;;;;;26.83;48.02;99807.78;2017029;80;20197;-73
2021/06/10 08:11:44;;;;;;;10.24;8.26;;;;;;;27.00;48.17;99804.91;2016771;80;20183;-73
2021/06/10 08:14:48;;;;;;;13.80;8.79;;;;;;;27.00;47.27;99801.41;2017334;80;20215;-70
2021/06/10 08:17:51;;;;;;;13.06;9.11;;;;;;;27.07;47.45;99805.34;2021555;77;21111;-71
2021/06/10 08:20:58;;;;;;;15.81;9.88;;;;;;;27.27;46.60;99801.38;2021400;80;20668;-73
2021/06/10 08:24:01;;;;;;;12.50;11.02;;;;;;;27.35;44.93;99796.41;2021613;80;20243;-82
2021/06/10 08:27:04;;;;;;;11.15;9.19;;;;;;;27.29;44.34;99795.00;2022664;80;20199;-82
2021/06/10 08:30:08;;;;;;;14.25;8.31;;;;;;;27.53;44.86;99794.28;2021908;80;20163;-81
2021/06/10 08:33:11;;;;;;;11.24;9.06;;;;;;;27.84;45.74;99787.75;2016475;78;46999;-81
2021/06/10 08:36:18;;;;;;;9.24;7.81;;;;;;;27.86;44.52;99785.81;2017539;80;20228;-80
2021/06/10 08:39:21;;;;;;;10.50;8.15;;;;;;;27.94;44.96;99787.00;2017518;80;20191;-82
2021/06/10 08:42:23;;;;;;;11.18;7.95;;;;;;;28.16;44.70;99785.47;2016954;80;20217;-82
2021/06/10 08:45:30;;;;;;;10.73;9.70;;;;;;;28.22;43.51;99780.56;2016911;78;22144;-83
2021/06/10 08:48:35;;;;;;;11.23;8.60;;;;;;;28.22;42.18;99785.91;2022152;80;20179;-82
2021/06/10 08:51:38;;;;;;;11.59;7.91;;;;;;;28.17;42.22;99787.19;2022663;80;20203;-81
2021/06/10 08:54:41;;;;;;;13.24;8.23;;;;;;;28.27;43.64;99786.47;2022389;80;20163;-81
2021/06/10 08:57:45;;;;;;;15.19;8.32;;;;;;;28.48;43.89;99793.91;2022541;80;20216;-82
2021/06/10 09:00:58;;;;;;;10.88;8.18;;;;;;;28.51;41.62;99801.69;2020224;77;20176;-83
2021/06/10 09:04:02;;;;;;;10.55;8.34;;;;;;;28.50;41.79;99795.50;2016837;80;20201;-82
2021/06/10 09:07:07;;;;;;;13.25;8.79;;;;;;;28.57;42.39;99786.09;2017349;80;20230;-83
2021/06/10 09:10:10;;;;;;;9.32;8.19;;;;;;;28.59;41.65;99783.31;2016841;80;21110;-84
2021/06/10 09:13:13;;;;;;;10.27;8.54;;;;;;;28.63;41.55;99784.78;2017189;80;20221;-82
2021/06/10 09:16:20;;;;;;;10.73;8.96;;;;;;;28.52;40.94;99782.88;2018961;77;22576;-82
2021/06/10 09:19:31;;;;;;;10.14;7.22;;;;;;;28.50;40.78;99786.63;2022230;80;20167;-82
2021/06/10 09:22:35;;;;;;;10.70;6.68;;;;;;;28.50;41.54;99784.81;2022892;80;20175;-84
2021/06/10 09:25:39;;;;;;;9.23;6.90;;;;;;;28.74;41.81;99784.00;2023690;80;20660;-82
2021/06/10 09:28:43;;;;;;;9.48;6.44;;;;;;;28.93;41.46;99792.41;2022791;80;20167;-84
2021/06/10 09:31:46;;;;;;;9.41;7.63;;;;;;;28.74;40.64;99781.34;2022822;77;22328;-81
2021/06/10 09:34:55;;;;;;;10.00;6.18;;;;;;;28.00;40.15;99786.53;2023432;80;20178;-80
2021/06/10 09:38:04;;;;;;;7.82;6.19;;;;;;;27.82;41.53;99792.31;2023263;80;20236;-81
2021/06/10 09:41:07;;;;;;;7.86;6.05;;;;;;;27.97;41.55;99792.09;2023927;80;20221;-80
2021/06/10 09:44:10;;;;;;;9.21;6.57;;;;;;;28.28;41.97;99790.84;2024058;80;20215;-81
2021/06/10 09:47:12;;;;;;;8.34;7.53;;;;;;;28.21;41.18;99789.53;2018521;77;20526;-81
2021/06/10 09:50:38;;;;;;;9.00;6.25;;;;;;;27.81;38.96;99788.78;2018256;80;20183;-81
2021/06/10 09:53:40;;;;;;;6.66;6.04;;;;;;;27.37;40.38;99787.31;2018458;80;20209;-80
2021/06/10 09:56:59;;;;;;;6.04;5.07;;;;;;;27.42;43.29;99788.81;2018599;80;20188;-79
2021/06/10 10:00:02;;;;;;;4.84;4.44;;;;;;;27.87;43.82;99788.38;2018308;80;20164;-79
2021/06/10 10:03:05;;;;;;;4.47;4.09;;;;;;;28.33;42.43;99778.97;2023376;77;20499;-79
2021/06/10 10:06:20;;;;;;;4.54;4.18;;;;;;;28.73;40.08;99779.63;2023234;80;20159;-81
2021/06/10 10:09:26;;;;;;;6.70;4.04;;;;;;;28.87;37.25;99774.97;2022308;80;20196;-79
2021/06/10 10:12:31;;;;;;;5.75;4.45;;;;;;;28.94;36.57;99771.88;2023574;80;20224;-80
2021/06/10 10:15:34;;;;;;;3.79;3.50;;;;;;;29.11;35.85;99774.16;2021336;77;20775;-80
2021/06/10 10:18:38;;;;;;;3.50;3.20;;;;;;;29.12;35.19;99767.81;2023799;80;20285;-81
2021/06/10 10:21:42;;;;;;;5.57;3.51;;;;;;;29.27;36.48;99774.69;2022388;80;20223;-82
2021/06/10 10:24:45;;;;;;;4.47;3.92;;;;;;;29.45;35.20;99778.69;2023245;80;20223;-83
2021/06/10 10:27:47;;;;;;;5.19;4.38;;;;;;;29.74;37.48;99773.75;2023194;80;20193;-80
2021/06/10 10:30:50;;;;;;;4.30;3.75;;;;;;;29.88;36.07;99771.81;2022406;77;20808;-80
2021/06/10 10:33:53;;;;;;;4.39;3.99;;;;;;;30.05;36.78;99774.91;2022545;80;20171;-83
2021/06/10 10:36:57;;;;;;;3.72;3.42;;;;;;;30.10;37.65;99762.97;2022877;80;20179;-81
2021/06/10 10:40:02;;;;;;;4.16;3.76;;;;;;;30.25;37.54;99761.75;2022330;80;20171;-71
2021/06/10 10:43:13;;;;;;;4.05;3.70;;;;;;;30.28;35.93;99757.00;2021934;80;20934;-71
2021/06/10 10:46:19;;;;;;;6.38;4.24;;;;;;;30.19;34.93;99757.75;2019585;77;25993;-69
2021/06/10 10:49:22;;;;;;;4.60;4.13;;;;;;;29.90;34.49;99745.78;2017809;80;20179;-69
2021/06/10 10:52:27;;;;;;;4.39;4.01;;;;;;;29.62;36.19;99745.25;2016218;80;20172;-69
2021/06/10 10:55:30;;;;;;;6.38;4.24;;;;;;;29.26;36.54;99756.06;2017193;80;20240;-69
2021/06/10 10:58:35;;;;;;;7.10;4.20;;;;;;;28.79;36.04;99753.28;2017097;80;20176;-69
2021/06/10 11:01:38;;;;;;;6.56;5.40;;;;;;;28.71;37.59;99758.31;2019170;77;20741;-69
2021/06/10 11:04:55;;;;;;;5.05;4.19;;;;;;;28.80;35.57;99751.47;2023143;80;20171;-69
2021/06/10 11:07:58;;;;;;;4.51;4.18;;;;;;;29.15;36.62;99738.16;2022389;80;20195;-69
2021/06/10 11:11:02;;;;;;;8.48;5.50;;;;;;;29.62;36.56;99742.56;2022567;80;20179;-70
2021/06/10 11:14:44;;;;;;;10.09;6.19;;;;;;;29.89;34.97;99739.56;2021962;80;20187;-70
2021/06/10 11:17:47;;;;;;;5.14;4.41;;;;;;;30.05;32.75;99728.53;2017963;78;20198;-69
2021/06/10 11:20:50;;;;;;;4.90;4.45;;;;;;;30.33;34.07;99728.00;2020092;80;20201;-69
2021/06/10 11:24:21;;;;;;;7.32;4.46;;;;;;;30.46;32.64;99725.19;2016682;80;20203;-69
2021/06/10 11:27:35;;;;;;;7.96;5.69;;;;;;;30.80;35.13;99719.75;2016352;80;20202;-70
2021/06/10 11:30:39;;;;;;;4.70;4.25;;;;;;;30.96;32.53;99720.19;2017569;77;21081;-70
2021/06/10 11:33:42;;;;;;;8.07;4.43;;;;;;;30.90;33.52;99715.34;2022186;80;20602;-69
2021/06/10 11:36:54;;;;;;;3.38;2.96;;;;;;;30.95;32.45;99721.16;2022266;80;20167;-70
2021/06/10 11:39:57;;;;;;;3.46;2.60;;;;;;;31.09;33.72;99711.97;2022311;80;20633;-70
2021/06/10 11:43:04;;;;;;;3.14;2.90;;;;;;;31.41;33.08;99719.97;2022072;80;20238;-70
2021/06/10 11:46:12;;;;;;;3.62;3.21;;;;;;;31.58;31.31;99719.38;2020280;77;52137;-70
2021/06/10 11:49:14;;;;;;;3.05;2.80;;;;;;;31.44;28.69;99711.69;2025583;80;20216;-70
2021/06/10 11:52:17;;;;;;;5.54;2.80;;;;;;;31.17;30.88;99713.03;2022482;80;20248;-70
2021/06/10 11:55:21;;;;;;;4.28;2.63;;;;;;;31.22;30.76;99715.34;2022063;79;20267;-70
2021/06/10 11:58:30;;;;;;;4.21;3.00;;;;;;;31.41;31.99;99709.25;2021747;80;20706;-75
2021/06/10 12:01:33;;;;;;;2.99;2.75;;;;;;;31.65;30.44;99698.25;2020453;77;20193;-69
2021/06/10 12:04:40;;;;;;;5.28;2.55;;;;;;;31.34;29.94;99700.88;2022150;80;20826;-69
2021/06/10 12:07:42;;;;;;;2.38;2.19;;;;;;;30.81;32.50;99695.50;2022364;80;20277;-69
2021/06/10 12:10:48;;;;;;;2.70;2.10;;;;;;;30.23;32.54;99686.88;2022117;79;20270;-69
2021/06/10 12:13:52;;;;;;;5.65;2.39;;;;;;;30.21;33.80;99686.16;2021886;80;20174;-69
2021/06/10 12:17:01;;;;;;;7.10;2.26;;;;;;;30.55;33.31;99678.88;2017502;77;22623;-69
2021/06/10 12:20:14;;;;;;;1.80;1.70;;;;;;;31.02;34.46;99682.09;2017103;80;20203;-69
2021/06/10 12:23:46;;;;;;;1.91;1.73;;;;;;;31.06;30.38;99675.53;2013391;80;20215;-69
2021/06/10 12:26:49;;;;;;;3.14;2.13;;;;;;;31.33;30.40;99675.03;2015465;80;20324;-69
2021/06/10 12:29:52;;;;;;;3.11;1.80;;;;;;;31.46;30.21;99674.81;2017273;80;20176;-70
2021/06/10 12:33:14;;;;;;;4.09;2.10;;;;;;;31.58;31.50;99666.53;2021190;77;22758;-68
2021/06/10 12:36:36;;;;;;;3.29;2.70;;;;;;;31.38;33.41;99671.94;2022362;80;20187;-69
2021/06/10 12:39:38;;;;;;;4.38;1.65;;;;;;;31.31;32.68;99671.63;2021242;80;20925;-70
2021/06/10 12:42:41;;;;;;;7.29;1.96;;;;;;;31.51;32.69;99672.59;2021376;80;20167;-69
2021/06/10 12:45:43;;;;;;;3.21;2.10;;;;;;;31.55;30.45;99663.28;2019738;78;20160;-69
2021/06/10 12:48:59;;;;;;;2.06;1.50;;;;;;;31.56;32.18;99663.13;2016209;80;20672;-68
2021/06/10 12:52:16;;;;;;;4.82;1.71;;;;;;;32.00;32.90;99649.50;2013272;80;20268;-76
2021/06/10 12:55:27;;;;;;;2.97;1.54;;;;;;;31.71;30.87;99660.94;2014730;80;20599;-75
2021/06/10 12:58:30;;;;;;;2.90;1.27;;;;;;;31.69;31.38;99654.88;2018920;80;20577;-76
2021/06/10 13:01:33;;;;;;;2.51;1.23;;;;;;;31.80;31.32;99652.13;2017984;77;21032;-75
2021/06/10 13:04:54;;;;;;;3.35;1.36;;;;;;;32.04;31.23;99648.25;2017340;80;20691;-75
2021/06/10 13:07:58;;;;;;;4.86;1.30;;;;;;;32.19;30.64;99646.88;2021047;80;20231;-74
2021/06/10 13:11:14;;;;;;;3.10;1.26;;;;;;;32.15;28.59;99640.94;2021140;80;20167;-74
2021/06/10 13:14:20;;;;;;;2.50;1.17;;;;;;;32.16;28.90;99644.47;2021312;80;20215;-75
2021/06/10 13:17:50;;;;;;;1.24;1.10;;;;;;;31.94;28.20;99639.28;2020543;77;22801;-75
2021/06/10 13:20:59;;;;;;;3.79;1.15;;;;;;;31.94;30.34;99632.06;2021880;80;20167;-74
2021/06/10 13:24:07;;;;;;;6.28;1.10;;;;;;;32.25;30.73;99642.75;2021980;80;20192;-75
2021/06/10 13:27:21;;;;;;;4.47;1.30;;;;;;;32.27;28.92;99647.03;2020813;80;20520;-74
2021/06/10 13:30:24;;;;;;;1.35;1.13;;;;;;;32.20;27.44;99645.88;2020366;77;20190;-76
2021/06/10 13:33:27;;;;;;;3.41;1.51;;;;;;;32.01;27.13;99630.56;2016253;80;20368;-75
2021/06/10 13:36:34;;;;;;;2.13;1.19;;;;;;;32.18;27.75;99637.09;2015606;80;20180;-75
2021/06/10 13:39:36;;;;;;;2.24;0.95;;;;;;;32.26;27.14;99631.03;2016498;80;20257;-76
2021/06/10 13:42:39;;;;;;;1.33;0.80;;;;;;;32.30;27.58;99632.47;2016021;80;20255;-75
2021/06/10 13:45:41;;;;;;;1.06;0.98;;;;;;;32.40;28.54;99619.91;2015616;77;21255;-75
2021/06/10 13:48:45;;;;;;;1.46;0.80;;;;;;;32.41;27.39;99625.13;2022068;80;20548;-76
2021/06/10 13:51:48;;;;;;;1.42;0.86;;;;;;;32.38;27.38;99620.06;2021410;80;20183;-76
2021/06/10 13:54:50;;;;;;;1.45;0.90;;;;;;;32.42;28.48;99626.00;2020916;80;20589;-75
2021/06/10 13:57:53;;;;;;;1.64;0.69;;;;;;;32.31;26.44;99608.13;2020984;80;20256;-75
2021/06/10 14:00:56;;;;;;;2.34;0.80;;;;;;;32.17;26.29;99613.91;2019114;80;20865;-74
2021/06/10 14:03:58;;;;;;;3.01;0.80;;;;;;;31.85;26.55;99606.91;2015844;80;20201;-75
2021/06/10 14:07:04;;;;;;;1.58;0.80;;;;;;;31.85;27.35;99608.75;2016523;80;20222;-75
2021/06/10 14:10:07;;;;;;;1.73;0.80;;;;;;;31.85;26.56;99601.53;2016614;80;20201;-75
2021/06/10 14:13:11;;;;;;;1.40;0.68;;;;;;;31.91;27.22;99600.13;2017182;80;20212;-74
2021/06/10 14:16:18;;;;;;;1.15;0.70;;;;;;;31.88;26.56;99589.66;2016150;78;22884;-75
2021/06/10 14:19:21;;;;;;;2.36;0.80;;;;;;;31.94;27.58;99597.16;2016724;80;20171;-75
2021/06/10 14:22:23;;;;;;;0.90;0.70;;;;;;;32.03;27.59;99596.34;2017541;80;20702;-76
2021/06/10 14:25:26;;;;;;;1.17;0.60;;;;;;;31.31;26.70;99601.00;2016948;80;20233;-76